createdAt,value
2023-03-02T00:01:10.468Z,8.53
2023-03-02T00:03:39.974Z,8.48
2023-03-02T00:06:09.033Z,8.41
2023-03-02T00:08:37.420Z,8.44
2023-03-02T00:11:04.747Z,8.43
2023-03-02T00:13:34.537Z,8.41
2023-03-02T00:16:01.518Z,8.39
2023-03-02T00:18:28.503Z,8.39
2023-03-02T00:20:56.452Z,8.34
2023-03-02T00:23:23.366Z,8.33
2023-03-02T00:25:50.256Z,8.30
2023-03-02T00:28:17.108Z,8.29
2023-03-02T00:30:44.074Z,8.26
2023-03-02T00:33:10.956Z,8.26
2023-03-02T00:35:42.019Z,8.26
2023-03-02T00:38:09.356Z,8.25
2023-03-02T00:40:36.631Z,8.24
2023-03-02T00:43:03.800Z,8.22
2023-03-02T00:45:30.972Z,8.19
2023-03-02T00:47:58.589Z,8.15
2023-03-02T00:50:25.512Z,8.15
2023-03-02T00:52:52.518Z,8.14
2023-03-02T00:55:19.638Z,8.15
2023-03-02T00:57:55.090Z,8.15
2023-03-02T01:00:28.672Z,8.12
2023-03-02T01:02:59.699Z,8.10
2023-03-02T01:05:26.773Z,8.10
2023-03-02T01:07:53.713Z,8.10
2023-03-02T01:10:20.686Z,8.07
2023-03-02T01:12:47.683Z,7.99
2023-03-02T01:15:14.633Z,8.01
2023-03-02T01:17:43.196Z,7.96
2023-03-02T01:20:11.554Z,7.97
2023-03-02T01:22:38.495Z,7.93
2023-03-02T01:25:06.269Z,7.94
2023-03-02T01:27:33.219Z,7.90
2023-03-02T01:30:00.172Z,7.87
2023-03-02T01:32:27.528Z,7.86
2023-03-02T01:34:54.695Z,7.86
2023-03-02T01:37:23.051Z,7.86
2023-03-02T01:39:50.720Z,7.88
2023-03-02T01:42:18.207Z,7.80
2023-03-02T01:44:48.656Z,7.79
2023-03-02T01:47:25.648Z,7.78
2023-03-02T01:50:23.384Z,7.67
2023-03-02T01:52:55.372Z,7.72
2023-03-02T01:55:26.210Z,7.77
2023-03-02T01:57:55.236Z,7.77
2023-03-02T02:00:31.833Z,7.78
2023-03-02T02:03:08.885Z,7.74
2023-03-02T02:05:41.241Z,7.78
2023-03-02T02:08:10.065Z,7.77
2023-03-02T02:14:20.067Z,7.78
2023-03-02T02:16:47.261Z,7.77
2023-03-02T02:19:50.658Z,7.78
2023-03-02T02:22:30.649Z,7.81
2023-03-02T02:25:04.202Z,7.82
2023-03-02T02:27:33.866Z,7.83
2023-03-02T02:30:05.438Z,7.87
2023-03-02T02:32:37.117Z,7.87
2023-03-02T02:35:13.037Z,7.88
2023-03-02T02:38:02.669Z,7.88
2023-03-02T02:40:58.918Z,7.89
2023-03-02T02:43:32.389Z,7.91
2023-03-02T02:46:01.387Z,7.97
2023-03-02T02:48:31.359Z,7.95
2023-03-02T02:51:00.649Z,7.97
2023-03-02T02:53:35.302Z,7.96
2023-03-02T02:56:05.290Z,7.94
2023-03-02T02:58:37.757Z,7.94
2023-03-02T03:01:06.987Z,7.97
2023-03-02T03:03:38.441Z,7.96
2023-03-02T03:06:21.119Z,8.01
2023-03-02T03:08:55.932Z,8.05
2023-03-02T03:11:34.800Z,8.02
2023-03-02T03:14:16.167Z,8.05
2023-03-02T03:16:47.873Z,8.03
2023-03-02T03:19:27.246Z,8.04
2023-03-02T03:21:57.959Z,8.05
2023-03-02T03:24:28.599Z,8.03
2023-03-02T03:26:56.128Z,8.06
2023-03-02T03:29:25.541Z,8.00
2023-03-02T03:31:57.513Z,8.03
2023-03-02T03:34:25.979Z,8.04
2023-03-02T03:36:54.167Z,8.04
2023-03-02T03:39:21.901Z,8.06
2023-03-02T03:41:50.407Z,8.08
2023-03-02T03:44:17.561Z,8.09
2023-03-02T03:46:45.006Z,8.10
2023-03-02T03:49:12.361Z,8.09
2023-03-02T03:51:40.116Z,8.11
2023-03-02T03:54:08.787Z,8.11
2023-03-02T03:56:42.894Z,8.11
2023-03-02T03:59:13.955Z,8.12
2023-03-02T04:01:49.430Z,8.11
2023-03-02T04:04:20.737Z,8.12
2023-03-02T04:06:49.020Z,8.12
2023-03-02T04:09:18.151Z,8.14
2023-03-02T04:11:47.844Z,8.13
2023-03-02T04:14:16.378Z,8.11
2023-03-02T04:16:44.510Z,8.15
2023-03-02T04:19:13.384Z,8.14
2023-03-02T04:21:45.362Z,8.12
2023-03-02T04:24:14.720Z,8.13
2023-03-02T04:26:43.007Z,8.16
2023-03-02T04:29:11.483Z,8.15
2023-03-02T04:31:39.767Z,8.16
2023-03-02T04:34:07.891Z,8.17
2023-03-02T04:36:39.847Z,8.19
2023-03-02T04:39:11.093Z,8.23
2023-03-02T04:41:38.173Z,8.23
2023-03-02T04:44:05.370Z,8.26
2023-03-02T04:46:34.826Z,8.27
2023-03-02T04:49:02.245Z,8.28
2023-03-02T04:51:31.887Z,8.30
2023-03-02T04:54:02.045Z,8.27
2023-03-02T04:56:29.399Z,8.28
2023-03-02T04:58:56.838Z,8.25
2023-03-02T05:01:24.712Z,8.22
2023-03-02T05:03:51.965Z,8.22
2023-03-02T05:06:21.863Z,8.18
2023-03-02T05:08:49.201Z,8.13
2023-03-02T05:11:22.674Z,8.11
2023-03-02T05:13:57.924Z,8.08
2023-03-02T05:16:26.458Z,8.03
2023-03-02T05:18:53.365Z,8.03
2023-03-02T05:21:20.332Z,8.04
2023-03-02T05:23:47.502Z,8.01
2023-03-02T05:26:15.014Z,7.99
2023-03-02T05:28:42.417Z,7.96
2023-03-02T05:31:10.684Z,7.95
2023-03-02T05:33:37.643Z,7.92
2023-03-02T05:36:04.849Z,7.89
2023-03-02T05:38:31.840Z,7.86
2023-03-02T05:40:59.119Z,7.83
2023-03-02T05:43:26.044Z,7.79
2023-03-02T05:45:52.946Z,7.78
2023-03-02T05:48:19.854Z,7.73
2023-03-02T05:50:46.798Z,7.67
2023-03-02T05:53:13.793Z,7.67
2023-03-02T05:55:40.761Z,7.66
2023-03-02T05:58:09.290Z,7.66
2023-03-02T06:00:36.357Z,7.64
2023-03-02T06:03:03.593Z,7.63
2023-03-02T06:05:30.557Z,7.63
2023-03-02T06:07:57.666Z,7.58
2023-03-02T06:10:25.326Z,7.56
2023-03-02T06:12:52.535Z,7.58
2023-03-02T06:15:20.150Z,7.53
2023-03-02T06:17:47.426Z,7.55
2023-03-02T06:20:15.400Z,7.53
2023-03-02T06:22:45.379Z,7.56
2023-03-02T06:25:15.385Z,7.55
2023-03-02T06:27:42.708Z,7.55
2023-03-02T06:30:13.295Z,7.57
2023-03-02T06:32:40.393Z,7.58
2023-03-02T06:35:08.749Z,7.58
2023-03-02T06:37:35.808Z,7.60
2023-03-02T06:40:03.453Z,7.66
2023-03-02T06:42:30.377Z,7.72
2023-03-02T06:44:57.358Z,7.80
2023-03-02T06:47:25.384Z,7.85
2023-03-02T06:49:52.478Z,7.96
2023-03-02T06:52:19.424Z,8.01
2023-03-02T06:54:46.302Z,8.08
2023-03-02T06:57:13.241Z,8.16
2023-03-02T06:59:40.239Z,8.22
2023-03-02T07:02:07.549Z,8.29
2023-03-02T07:04:34.432Z,8.38
2023-03-02T07:07:01.463Z,8.43
2023-03-02T07:09:30.941Z,8.50
2023-03-02T07:11:58.008Z,8.53
2023-03-02T07:14:24.936Z,8.53
2023-03-02T07:16:52.177Z,8.58
2023-03-02T07:19:19.185Z,8.60
2023-03-02T07:21:46.127Z,8.61
2023-03-02T07:24:13.091Z,8.64
2023-03-02T07:26:40.021Z,8.63
2023-03-02T07:29:06.949Z,8.65
2023-03-02T07:31:34.163Z,8.65
2023-03-02T07:34:01.287Z,8.62
2023-03-02T07:36:28.157Z,8.61
2023-03-02T07:38:55.173Z,8.62
2023-03-02T07:41:22.958Z,8.66
2023-03-02T07:43:49.941Z,8.69
2023-03-02T07:46:16.933Z,8.73
2023-03-02T07:48:44.403Z,8.79
2023-03-02T07:51:11.325Z,8.81
2023-03-02T07:53:38.427Z,8.90
2023-03-02T07:56:10.246Z,8.93
2023-03-02T07:58:38.080Z,8.99
2023-03-02T08:01:06.773Z,9.07
2023-03-02T08:03:33.739Z,9.13
2023-03-02T08:06:10.484Z,9.18
2023-03-02T08:08:37.999Z,9.20
2023-03-02T08:11:23.023Z,9.27
2023-03-02T08:13:49.894Z,9.29
2023-03-02T08:16:16.934Z,9.31
2023-03-02T08:18:44.443Z,9.40
2023-03-02T08:21:16.537Z,9.47
2023-03-02T08:23:43.781Z,9.47
2023-03-02T08:26:13.877Z,9.43
2023-03-02T08:28:42.153Z,9.51
2023-03-02T08:31:10.230Z,9.56
2023-03-02T08:33:37.735Z,9.48
2023-03-02T08:36:12.728Z,9.55
2023-03-02T08:38:40.230Z,9.60
2023-03-02T08:41:10.458Z,9.72
2023-03-02T08:43:37.721Z,9.77
2023-03-02T08:46:05.310Z,9.84
2023-03-02T08:48:32.713Z,9.94
2023-03-02T08:51:02.393Z,10.09
2023-03-02T08:53:31.202Z,10.26
2023-03-02T08:55:58.353Z,10.37
2023-03-02T08:58:25.553Z,10.44
2023-03-02T09:00:52.613Z,10.44
2023-03-02T09:03:19.726Z,10.42
2023-03-02T09:05:46.848Z,10.43
2023-03-02T09:08:14.134Z,10.45
2023-03-02T09:10:41.101Z,10.51
2023-03-02T09:13:08.738Z,10.55
2023-03-02T09:15:35.738Z,10.67
2023-03-02T09:18:02.658Z,10.97
2023-03-02T09:20:29.581Z,11.41
2023-03-02T09:22:56.469Z,12.00
2023-03-02T09:25:23.370Z,12.78
2023-03-02T09:27:50.247Z,13.61
2023-03-02T09:30:17.342Z,14.40
2023-03-02T09:32:44.477Z,15.18
2023-03-02T09:35:11.908Z,15.53
2023-03-02T09:37:39.120Z,15.53
2023-03-02T09:40:16.713Z,16.10
2023-03-02T09:42:55.624Z,16.67
2023-03-02T09:45:41.162Z,17.09
2023-03-02T09:48:32.510Z,17.25
2023-03-02T09:51:43.684Z,17.23
2023-03-02T09:54:21.326Z,17.12
2023-03-02T09:56:55.228Z,17.00
2023-03-02T10:00:01.618Z,17.02
2023-03-02T10:02:47.440Z,16.79
2023-03-02T10:05:20.707Z,16.65
2023-03-02T10:07:48.637Z,16.48
2023-03-02T10:10:18.138Z,16.40
2023-03-02T10:13:11.376Z,16.25
2023-03-02T10:16:05.966Z,16.02
2023-03-02T10:18:47.183Z,15.93
2023-03-02T10:21:44.177Z,15.85
2023-03-02T10:24:29.769Z,15.64
2023-03-02T10:27:31.531Z,15.53
2023-03-02T10:30:20.017Z,15.45
2023-03-02T10:32:50.574Z,15.52
2023-03-02T10:35:23.678Z,15.66
2023-03-02T10:38:17.398Z,15.89
2023-03-02T10:40:48.671Z,16.00
2023-03-02T10:43:23.700Z,16.20
2023-03-02T10:46:02.295Z,16.41
2023-03-02T10:48:29.632Z,16.36
2023-03-02T10:50:58.975Z,16.30
2023-03-02T10:53:26.478Z,16.14
2023-03-02T10:55:54.022Z,16.05
2023-03-02T10:58:25.981Z,15.89
2023-03-02T11:01:17.642Z,15.88
2023-03-02T11:04:04.904Z,15.78
2023-03-02T11:06:32.134Z,15.73
2023-03-02T11:09:07.537Z,15.59
2023-03-02T11:11:35.179Z,15.57
2023-03-02T11:14:19.635Z,15.55
2023-03-02T11:16:46.527Z,15.63
2023-03-02T11:19:17.730Z,15.77
2023-03-02T11:21:52.746Z,16.01
2023-03-02T11:24:46.784Z,16.44
2023-03-02T11:27:20.247Z,16.53
2023-03-02T11:30:03.110Z,16.89
2023-03-02T11:32:41.986Z,16.95
2023-03-02T11:35:30.741Z,17.08
2023-03-02T11:38:11.395Z,17.04
2023-03-02T11:40:53.731Z,16.90
2023-03-02T11:43:20.700Z,16.60
2023-03-02T11:45:57.003Z,16.60
2023-03-02T11:48:32.624Z,16.32
2023-03-02T11:51:11.924Z,16.21
2023-03-02T11:54:03.189Z,16.04
2023-03-02T11:56:36.853Z,15.81
2023-03-02T11:59:11.750Z,15.74
2023-03-02T12:01:40.466Z,15.63
2023-03-02T12:04:35.141Z,15.39
2023-03-02T12:07:16.719Z,15.19
2023-03-02T12:09:43.691Z,15.08
2023-03-02T12:12:19.212Z,15.01
2023-03-02T12:14:46.154Z,14.95
2023-03-02T12:17:32.474Z,14.78
2023-03-02T12:20:10.701Z,14.79
2023-03-02T12:22:37.979Z,14.66
2023-03-02T12:25:07.928Z,14.77
2023-03-02T12:27:42.144Z,14.81
2023-03-02T12:30:28.577Z,14.95
2023-03-02T12:33:20.716Z,15.10
2023-03-02T12:35:50.976Z,15.14
2023-03-02T12:38:28.384Z,15.32
2023-03-02T12:41:17.553Z,15.55
2023-03-02T12:43:56.620Z,15.74
2023-03-02T12:46:28.629Z,15.87
2023-03-02T12:49:01.070Z,15.97
2023-03-02T12:51:32.440Z,15.99
2023-03-02T12:54:04.909Z,15.95
2023-03-02T12:56:31.960Z,16.00
2023-03-02T12:58:59.558Z,16.05
2023-03-02T13:01:30.131Z,16.05
2023-03-02T13:03:57.655Z,15.96
2023-03-02T13:06:29.910Z,16.01
2023-03-02T13:08:58.914Z,16.05
2023-03-02T13:11:37.197Z,15.64
2023-03-02T13:14:19.640Z,15.71
2023-03-02T13:17:04.675Z,15.76
2023-03-02T13:19:34.138Z,15.75
2023-03-02T13:22:02.083Z,15.81
2023-03-02T13:24:31.696Z,15.89
2023-03-02T13:27:15.667Z,15.87
2023-03-02T13:29:42.692Z,15.66
2023-03-02T13:32:17.487Z,15.63
2023-03-02T13:34:50.411Z,15.58
2023-03-02T13:37:43.849Z,15.67
2023-03-02T13:40:24.388Z,15.78
2023-03-02T13:42:51.483Z,15.88
2023-03-02T13:45:25.028Z,15.98
2023-03-02T13:47:53.042Z,16.00
2023-03-02T13:50:38.209Z,15.76
2023-03-02T13:53:07.228Z,15.77
2023-03-02T13:55:35.515Z,15.90
2023-03-02T13:58:03.348Z,15.92
2023-03-02T14:00:35.230Z,16.01
2023-03-02T14:03:02.280Z,16.07
2023-03-02T14:05:35.767Z,16.02
2023-03-02T14:08:03.071Z,16.10
2023-03-02T14:10:30.048Z,15.97
2023-03-02T14:13:02.720Z,16.03
2023-03-02T14:15:29.905Z,16.12
2023-03-02T14:17:56.971Z,16.00
2023-03-02T14:20:24.011Z,16.08
2023-03-02T14:22:50.876Z,16.21
2023-03-02T14:25:18.057Z,16.28
2023-03-02T14:27:47.267Z,16.20
2023-03-02T14:30:18.680Z,16.25
2023-03-02T14:32:46.448Z,16.14
2023-03-02T14:35:15.876Z,16.21
2023-03-02T14:37:48.602Z,16.32
2023-03-02T14:40:21.669Z,16.33
2023-03-02T14:42:48.840Z,16.45
2023-03-02T14:45:16.574Z,16.43
2023-03-02T14:47:43.590Z,16.26
2023-03-02T14:50:12.182Z,16.04
2023-03-02T14:52:43.110Z,16.19
2023-03-02T14:55:18.460Z,16.25
2023-03-02T14:57:45.634Z,16.13
2023-03-02T15:00:15.579Z,16.05
2023-03-02T15:02:42.955Z,16.12
2023-03-02T15:05:10.696Z,16.30
2023-03-02T15:07:39.060Z,16.36
2023-03-02T15:10:07.297Z,16.22
2023-03-02T15:12:34.609Z,16.25
2023-03-02T15:15:01.498Z,16.28
2023-03-02T15:17:28.485Z,16.21
2023-03-02T15:19:55.428Z,16.13
2023-03-02T15:22:22.405Z,16.21
2023-03-02T15:24:49.338Z,16.24
2023-03-02T15:27:17.887Z,16.25
2023-03-02T15:29:46.565Z,16.24
2023-03-02T15:32:14.050Z,16.23
2023-03-02T15:34:41.428Z,16.10
2023-03-02T15:37:10.545Z,15.97
2023-03-02T15:39:38.130Z,15.79
2023-03-02T15:42:06.023Z,15.70
2023-03-02T15:44:33.601Z,15.61
2023-03-02T15:47:01.824Z,15.37
2023-03-02T15:49:31.682Z,15.27
2023-03-02T15:51:58.972Z,15.12
2023-03-02T15:54:27.160Z,15.09
2023-03-02T15:56:54.373Z,15.13
2023-03-02T15:59:26.902Z,14.96
2023-03-02T16:01:54.674Z,14.99
2023-03-02T16:04:21.852Z,14.99
2023-03-02T16:06:49.044Z,14.96
2023-03-02T16:09:19.290Z,14.90
2023-03-02T16:11:49.235Z,14.82
2023-03-02T16:14:16.283Z,14.33
2023-03-02T16:16:45.420Z,14.36
2023-03-02T16:19:14.538Z,14.50
2023-03-02T16:21:41.730Z,14.49
2023-03-02T16:24:09.271Z,14.37
2023-03-02T16:26:38.302Z,14.42
2023-03-02T16:29:08.107Z,14.28
2023-03-02T16:31:38.051Z,14.27
2023-03-02T16:34:09.528Z,14.32
2023-03-02T16:36:38.694Z,14.25
2023-03-02T16:39:07.281Z,14.29
2023-03-02T16:41:35.159Z,14.25
2023-03-02T16:44:02.202Z,14.24
2023-03-02T16:46:31.780Z,14.13
2023-03-02T16:48:59.049Z,14.15
2023-03-02T16:51:26.082Z,14.18
2023-03-02T16:53:52.946Z,14.13
2023-03-02T16:56:20.195Z,14.12
2023-03-02T16:58:47.294Z,14.01
2023-03-02T17:01:18.114Z,14.02
2023-03-02T17:03:46.600Z,13.95
2023-03-02T17:06:15.972Z,13.94
2023-03-02T17:08:43.115Z,13.94
2023-03-02T17:11:11.145Z,13.91
2023-03-02T17:13:38.352Z,13.89
2023-03-02T17:16:05.909Z,13.83
2023-03-02T17:18:33.790Z,13.82
2023-03-02T17:21:01.498Z,13.80
2023-03-02T17:23:34.180Z,13.74
2023-03-02T17:26:01.099Z,13.58
2023-03-02T17:28:28.163Z,13.53
2023-03-02T17:30:55.267Z,13.45
2023-03-02T17:33:22.379Z,13.39
2023-03-02T17:35:50.206Z,13.22
2023-03-02T17:38:17.187Z,13.26
2023-03-02T17:40:44.363Z,13.26
2023-03-02T17:43:12.577Z,13.22
2023-03-02T17:45:40.567Z,13.25
2023-03-02T17:48:07.811Z,13.22
2023-03-02T17:50:34.946Z,13.13
2023-03-02T17:53:03.060Z,13.14
2023-03-02T17:55:30.549Z,13.13
2023-03-02T17:57:57.688Z,13.05
2023-03-02T18:00:25.010Z,12.96
2023-03-02T18:02:52.479Z,12.93
2023-03-02T18:05:19.701Z,12.96
2023-03-02T18:07:46.606Z,12.95
2023-03-02T18:10:14.420Z,12.90
2023-03-02T18:12:41.284Z,12.86
2023-03-02T18:15:09.229Z,12.77
2023-03-02T18:17:36.469Z,12.75
2023-03-02T18:20:04.105Z,12.80
2023-03-02T18:22:31.251Z,12.68
2023-03-02T18:25:01.941Z,12.71
2023-03-02T18:27:28.929Z,12.63
2023-03-02T18:29:55.875Z,12.62
2023-03-02T18:32:23.748Z,12.52
2023-03-02T18:34:53.634Z,12.46
2023-03-02T18:37:21.028Z,12.33
2023-03-02T18:39:49.233Z,12.28
2023-03-02T18:42:16.498Z,12.19
2023-03-02T18:44:43.412Z,12.21
2023-03-02T18:47:15.768Z,12.22
2023-03-02T18:49:42.806Z,12.19
2023-03-02T18:52:10.017Z,12.17
2023-03-02T18:54:36.954Z,12.18
2023-03-02T18:57:04.052Z,12.16
2023-03-02T18:59:31.097Z,12.16
2023-03-02T19:01:58.088Z,12.12
2023-03-02T19:04:26.757Z,12.02
2023-03-02T19:06:56.204Z,12.03
2023-03-02T19:09:23.727Z,12.02
2023-03-02T19:11:50.898Z,11.99
2023-03-02T19:14:18.445Z,12.01
2023-03-02T19:16:46.389Z,12.03
2023-03-02T19:19:13.855Z,11.98
2023-03-02T19:21:41.120Z,11.93
2023-03-02T19:24:08.944Z,11.93
2023-03-02T19:26:36.261Z,11.91
2023-03-02T19:29:04.389Z,11.90
2023-03-02T19:31:32.974Z,11.86
2023-03-02T19:34:00.960Z,11.82
2023-03-02T19:36:31.069Z,11.83
2023-03-02T19:38:58.325Z,11.79
2023-03-02T19:41:25.237Z,11.77
2023-03-02T19:43:52.188Z,11.79
2023-03-02T19:46:19.293Z,11.78
2023-03-02T19:48:46.251Z,11.77
2023-03-02T19:51:15.179Z,11.73
2023-03-02T19:53:43.678Z,11.73
2023-03-02T19:56:14.368Z,11.68
2023-03-02T19:58:47.940Z,11.66
2023-03-02T20:01:21.628Z,11.63
2023-03-02T20:03:51.827Z,11.58
2023-03-02T20:06:21.093Z,11.57
2023-03-02T20:08:49.132Z,11.53
2023-03-02T20:11:16.633Z,11.53
2023-03-02T20:13:44.363Z,11.52
2023-03-02T20:16:13.985Z,11.48
2023-03-02T20:18:42.395Z,11.48
2023-03-02T20:21:09.416Z,11.46
2023-03-02T20:23:36.820Z,11.43
2023-03-02T20:26:05.529Z,11.42
2023-03-02T20:28:33.252Z,11.37
2023-03-02T20:31:03.942Z,11.34
2023-03-02T20:33:36.872Z,11.32
2023-03-02T20:36:04.775Z,11.33
2023-03-02T20:38:42.846Z,11.27
2023-03-02T20:41:11.977Z,11.26
2023-03-02T20:43:40.820Z,11.23
2023-03-02T20:46:09.998Z,11.19
2023-03-02T20:48:37.139Z,11.17
2023-03-02T20:51:04.558Z,11.11
2023-03-02T20:53:31.717Z,11.07
2023-03-02T20:55:58.951Z,11.05
2023-03-02T20:58:25.919Z,10.96
2023-03-02T21:00:53.988Z,10.97
2023-03-02T21:03:21.017Z,10.97
2023-03-02T21:05:49.107Z,10.91
2023-03-02T21:08:16.257Z,10.90
2023-03-02T21:10:44.176Z,10.80
2023-03-02T21:13:12.024Z,10.77
2023-03-02T21:15:41.219Z,10.75
2023-03-02T21:18:08.592Z,10.70
2023-03-02T21:20:36.269Z,10.67
2023-03-02T21:23:07.028Z,10.64
2023-03-02T21:25:34.296Z,10.56
2023-03-02T21:28:01.630Z,10.54
2023-03-02T21:30:35.770Z,10.51
2023-03-02T21:33:03.844Z,10.46
2023-03-02T21:35:31.222Z,10.45
2023-03-02T21:37:59.737Z,10.46
2023-03-02T21:40:31.917Z,10.45
2023-03-02T21:43:00.578Z,10.38
2023-03-02T21:45:29.018Z,10.35
2023-03-02T21:47:56.123Z,10.28
2023-03-02T21:50:27.114Z,10.27
2023-03-02T21:52:55.686Z,10.26
2023-03-02T21:55:22.844Z,10.28
2023-03-02T21:57:49.915Z,10.25
2023-03-02T22:00:24.894Z,10.22
2023-03-02T22:02:51.900Z,10.15
2023-03-02T22:05:20.077Z,10.07
2023-03-02T22:07:47.906Z,10.03
2023-03-02T22:10:38.928Z,10.00
2023-03-02T22:13:17.615Z,9.93
2023-03-02T22:15:46.462Z,9.89
2023-03-02T22:18:19.496Z,9.88
2023-03-02T22:20:51.796Z,9.87
2023-03-02T22:23:22.390Z,9.82
2023-03-02T22:25:52.489Z,9.79
2023-03-02T22:28:22.132Z,9.81
2023-03-02T22:30:51.063Z,9.81
2023-03-02T22:33:24.271Z,9.79
2023-03-02T22:35:54.278Z,9.77
2023-03-02T22:38:29.390Z,9.72
2023-03-02T22:40:57.241Z,9.71
2023-03-02T22:43:29.562Z,9.67
2023-03-02T22:46:17.622Z,9.69
2023-03-02T22:48:50.378Z,9.70
2023-03-02T22:51:20.109Z,9.70
2023-03-02T22:53:59.868Z,9.70
2023-03-02T22:56:34.103Z,9.67
2023-03-02T22:59:25.999Z,9.63
2023-03-02T23:01:58.214Z,9.58
2023-03-02T23:04:31.005Z,9.60
2023-03-02T23:07:00.742Z,9.60
2023-03-02T23:09:31.797Z,9.56
2023-03-02T23:12:02.397Z,9.59
2023-03-02T23:14:39.477Z,9.59
2023-03-02T23:17:14.458Z,9.57
2023-03-02T23:19:41.514Z,9.52
2023-03-02T23:22:09.437Z,9.53
2023-03-02T23:24:36.934Z,9.47
2023-03-02T23:27:04.024Z,9.45
2023-03-02T23:29:32.160Z,9.42
2023-03-02T23:31:59.283Z,9.43
2023-03-02T23:34:26.491Z,9.42
2023-03-02T23:36:53.384Z,9.39
2023-03-02T23:39:20.410Z,9.32
2023-03-02T23:41:47.778Z,9.32
2023-03-02T23:44:14.962Z,9.30
2023-03-02T23:46:41.961Z,9.24
2023-03-02T23:49:08.886Z,9.26
2023-03-02T23:51:35.775Z,9.21
2023-03-02T23:54:04.651Z,9.19
2023-03-02T23:56:31.750Z,9.16
2023-03-02T23:58:58.807Z,9.15
